sensor_id;sensor_type;location;lat;lon;timestamp;P1;durP1;ratioP1;P2;durP2;ratioP2
22026;SDS011;11177;50.966;10.070;2022-08-19T00:01:32;30.77;;;21.83;;
22026;SDS011;11177;50.966;10.070;2022-08-19T00:04:04;32.88;;;22.52;;
22026;SDS011;11177;50.966;10.070;2022-08-19T00:06:33;33.88;;;23.63;;
22026;SDS011;11177;50.966;10.070;2022-08-19T00:09:01;32.55;;;22.67;;
22026;SDS011;11177;50.966;10.070;2022-08-19T00:11:29;32.05;;;23.17;;
22026;SDS011;11177;50.966;10.070;2022-08-19T00:13:56;32.83;;;23.67;;
22026;SDS011;11177;50.966;10.070;2022-08-19T00:16:24;32.85;;;23.23;;
22026;SDS011;11177;50.966;10.070;2022-08-19T00:18:52;33.40;;;23.48;;
22026;SDS011;11177;50.966;10.070;2022-08-19T00:21:25;33.75;;;23.75;;
22026;SDS011;11177;50.966;10.070;2022-08-19T00:23:54;36.50;;;24.20;;
22026;SDS011;11177;50.966;10.070;2022-08-19T00:26:21;32.20;;;22.90;;
22026;SDS011;11177;50.966;10.070;2022-08-19T00:28:48;30.80;;;23.33;;
22026;SDS011;11177;50.966;10.070;2022-08-19T00:31:16;31.40;;;22.80;;
22026;SDS011;11177;50.966;10.070;2022-08-19T00:33:43;32.35;;;22.45;;
22026;SDS011;11177;50.966;10.070;2022-08-19T00:36:10;30.33;;;22.27;;
22026;SDS011;11177;50.966;10.070;2022-08-19T00:38:38;34.20;;;23.02;;
22026;SDS011;11177;50.966;10.070;2022-08-19T00:41:11;30.35;;;22.25;;
22026;SDS011;11177;50.966;10.070;2022-08-19T00:43:40;33.38;;;22.95;;
22026;SDS011;11177;50.966;10.070;2022-08-19T00:46:08;31.52;;;22.88;;
22026;SDS011;11177;50.966;10.070;2022-08-19T00:48:35;32.67;;;22.98;;
22026;SDS011;11177;50.966;10.070;2022-08-19T00:51:03;33.50;;;22.73;;
22026;SDS011;11177;50.966;10.070;2022-08-19T00:53:31;34.00;;;23.05;;
22026;SDS011;11177;50.966;10.070;2022-08-19T00:56:00;31.33;;;22.48;;
22026;SDS011;11177;50.966;10.070;2022-08-19T00:58:30;34.53;;;23.50;;
22026;SDS011;11177;50.966;10.070;2022-08-19T01:00:59;33.42;;;22.55;;
22026;SDS011;11177;50.966;10.070;2022-08-19T01:03:27;30.83;;;23.05;;
22026;SDS011;11177;50.966;10.070;2022-08-19T01:06:14;30.13;;;22.83;;
22026;SDS011;11177;50.966;10.070;2022-08-19T01:08:46;31.65;;;22.75;;
22026;SDS011;11177;50.966;10.070;2022-08-19T01:11:15;30.75;;;22.02;;
22026;SDS011;11177;50.966;10.070;2022-08-19T01:13:43;29.27;;;22.25;;
22026;SDS011;11177;50.966;10.070;2022-08-19T01:16:15;29.08;;;21.70;;
22026;SDS011;11177;50.966;10.070;2022-08-19T01:18:45;31.48;;;22.98;;
22026;SDS011;11177;50.966;10.070;2022-08-19T01:21:31;32.00;;;22.58;;
22026;SDS011;11177;50.966;10.070;2022-08-19T01:24:01;28.67;;;22.15;;
22026;SDS011;11177;50.966;10.070;2022-08-19T01:26:28;32.45;;;22.42;;
22026;SDS011;11177;50.966;10.070;2022-08-19T01:28:57;30.25;;;21.70;;
22026;SDS011;11177;50.966;10.070;2022-08-19T01:31:27;30.60;;;22.02;;
22026;SDS011;11177;50.966;10.070;2022-08-19T01:33:58;30.08;;;21.90;;
22026;SDS011;11177;50.966;10.070;2022-08-19T01:36:28;31.85;;;21.52;;
22026;SDS011;11177;50.966;10.070;2022-08-19T01:39:02;30.92;;;22.50;;
22026;SDS011;11177;50.966;10.070;2022-08-19T01:41:30;31.85;;;22.20;;
22026;SDS011;11177;50.966;10.070;2022-08-19T01:43:57;30.02;;;22.23;;
22026;SDS011;11177;50.966;10.070;2022-08-19T01:46:44;31.90;;;22.73;;
22026;SDS011;11177;50.966;10.070;2022-08-19T01:49:14;27.60;;;19.83;;
22026;SDS011;11177;50.966;10.070;2022-08-19T01:51:43;29.75;;;20.45;;
22026;SDS011;11177;50.966;10.070;2022-08-19T01:54:11;24.55;;;19.27;;
22026;SDS011;11177;50.966;10.070;2022-08-19T01:56:53;27.55;;;19.48;;
22026;SDS011;11177;50.966;10.070;2022-08-19T01:59:23;25.55;;;19.98;;
22026;SDS011;11177;50.966;10.070;2022-08-19T02:01:51;24.55;;;19.55;;
22026;SDS011;11177;50.966;10.070;2022-08-19T02:04:18;27.20;;;19.52;;
22026;SDS011;11177;50.966;10.070;2022-08-19T02:06:45;26.23;;;19.80;;
22026;SDS011;11177;50.966;10.070;2022-08-19T02:09:12;26.77;;;19.67;;
22026;SDS011;11177;50.966;10.070;2022-08-19T02:11:39;29.40;;;18.85;;
22026;SDS011;11177;50.966;10.070;2022-08-19T02:14:08;27.52;;;19.80;;
22026;SDS011;11177;50.966;10.070;2022-08-19T02:16:35;28.27;;;20.50;;
22026;SDS011;11177;50.966;10.070;2022-08-19T02:19:02;28.48;;;21.45;;
22026;SDS011;11177;50.966;10.070;2022-08-19T02:21:29;26.55;;;20.13;;
22026;SDS011;11177;50.966;10.070;2022-08-19T02:23:56;25.83;;;20.55;;
22026;SDS011;11177;50.966;10.070;2022-08-19T02:26:24;25.48;;;20.15;;
22026;SDS011;11177;50.966;10.070;2022-08-19T02:28:53;28.55;;;20.95;;
22026;SDS011;11177;50.966;10.070;2022-08-19T02:31:21;27.15;;;20.38;;
22026;SDS011;11177;50.966;10.070;2022-08-19T02:33:51;27.60;;;20.85;;
22026;SDS011;11177;50.966;10.070;2022-08-19T02:36:22;27.00;;;21.40;;
22026;SDS011;11177;50.966;10.070;2022-08-19T02:38:50;26.77;;;20.50;;
22026;SDS011;11177;50.966;10.070;2022-08-19T02:41:25;26.40;;;20.98;;
22026;SDS011;11177;50.966;10.070;2022-08-19T02:43:57;27.57;;;21.27;;
22026;SDS011;11177;50.966;10.070;2022-08-19T02:46:46;26.38;;;20.52;;
22026;SDS011;11177;50.966;10.070;2022-08-19T02:49:13;27.08;;;20.60;;
22026;SDS011;11177;50.966;10.070;2022-08-19T02:51:44;27.80;;;20.02;;
22026;SDS011;11177;50.966;10.070;2022-08-19T02:54:12;25.70;;;19.92;;
22026;SDS011;11177;50.966;10.070;2022-08-19T02:56:40;23.65;;;19.83;;
22026;SDS011;11177;50.966;10.070;2022-08-19T02:59:09;30.48;;;20.25;;
22026;SDS011;11177;50.966;10.070;2022-08-19T03:01:39;27.10;;;19.95;;
22026;SDS011;11177;50.966;10.070;2022-08-19T03:04:08;25.05;;;19.35;;
22026;SDS011;11177;50.966;10.070;2022-08-19T03:06:38;24.45;;;19.60;;
22026;SDS011;11177;50.966;10.070;2022-08-19T03:09:06;23.15;;;19.50;;
22026;SDS011;11177;50.966;10.070;2022-08-19T03:11:33;26.58;;;19.50;;
22026;SDS011;11177;50.966;10.070;2022-08-19T03:14:01;27.08;;;19.52;;
22026;SDS011;11177;50.966;10.070;2022-08-19T03:16:29;26.27;;;19.35;;
22026;SDS011;11177;50.966;10.070;2022-08-19T03:18:59;25.23;;;18.92;;
22026;SDS011;11177;50.966;10.070;2022-08-19T03:21:27;23.90;;;18.02;;
22026;SDS011;11177;50.966;10.070;2022-08-19T03:23:58;27.02;;;18.23;;
22026;SDS011;11177;50.966;10.070;2022-08-19T03:26:26;25.75;;;19.08;;
22026;SDS011;11177;50.966;10.070;2022-08-19T03:28:54;24.73;;;18.55;;
22026;SDS011;11177;50.966;10.070;2022-08-19T03:31:24;29.02;;;19.38;;
22026;SDS011;11177;50.966;10.070;2022-08-19T03:34:23;22.02;;;18.15;;
22026;SDS011;11177;50.966;10.070;2022-08-19T03:36:57;24.23;;;17.40;;
22026;SDS011;11177;50.966;10.070;2022-08-19T03:39:27;22.10;;;15.45;;
22026;SDS011;11177;50.966;10.070;2022-08-19T03:41:54;27.17;;;16.77;;
22026;SDS011;11177;50.966;10.070;2022-08-19T03:44:48;21.40;;;15.95;;
22026;SDS011;11177;50.966;10.070;2022-08-19T03:47:15;20.38;;;16.13;;
22026;SDS011;11177;50.966;10.070;2022-08-19T03:49:43;22.88;;;16.05;;
22026;SDS011;11177;50.966;10.070;2022-08-19T03:52:11;20.83;;;14.00;;
22026;SDS011;11177;50.966;10.070;2022-08-19T03:54:38;18.08;;;13.07;;
22026;SDS011;11177;50.966;10.070;2022-08-19T03:57:06;16.83;;;13.27;;
22026;SDS011;11177;50.966;10.070;2022-08-19T03:59:33;13.45;;;11.45;;
22026;SDS011;11177;50.966;10.070;2022-08-19T04:02:05;19.17;;;12.60;;
22026;SDS011;11177;50.966;10.070;2022-08-19T04:04:39;15.27;;;11.23;;
22026;SDS011;11177;50.966;10.070;2022-08-19T04:07:10;14.55;;;11.50;;
22026;SDS011;11177;50.966;10.070;2022-08-19T04:09:39;14.02;;;11.38;;
22026;SDS011;11177;50.966;10.070;2022-08-19T04:12:06;15.32;;;11.50;;
22026;SDS011;11177;50.966;10.070;2022-08-19T04:14:33;15.32;;;10.80;;
22026;SDS011;11177;50.966;10.070;2022-08-19T04:17:01;15.60;;;10.88;;
22026;SDS011;11177;50.966;10.070;2022-08-19T04:19:31;14.88;;;10.25;;
22026;SDS011;11177;50.966;10.070;2022-08-19T04:22:02;12.88;;;9.25;;
22026;SDS011;11177;50.966;10.070;2022-08-19T04:24:30;13.50;;;9.30;;
22026;SDS011;11177;50.966;10.070;2022-08-19T04:26:58;12.27;;;9.73;;
22026;SDS011;11177;50.966;10.070;2022-08-19T04:29:26;12.95;;;9.93;;
22026;SDS011;11177;50.966;10.070;2022-08-19T04:31:54;14.73;;;10.30;;
22026;SDS011;11177;50.966;10.070;2022-08-19T04:34:23;10.25;;;9.13;;
22026;SDS011;11177;50.966;10.070;2022-08-19T04:36:52;15.30;;;9.43;;
22026;SDS011;11177;50.966;10.070;2022-08-19T04:39:21;11.07;;;8.77;;
22026;SDS011;11177;50.966;10.070;2022-08-19T04:42:11;14.65;;;9.23;;
22026;SDS011;11177;50.966;10.070;2022-08-19T04:44:57;15.38;;;10.30;;
22026;SDS011;11177;50.966;10.070;2022-08-19T04:47:25;13.25;;;9.30;;
22026;SDS011;11177;50.966;10.070;2022-08-19T04:50:12;12.25;;;9.18;;
22026;SDS011;11177;50.966;10.070;2022-08-19T04:52:39;14.65;;;9.43;;
22026;SDS011;11177;50.966;10.070;2022-08-19T04:55:09;11.02;;;9.40;;
22026;SDS011;11177;50.966;10.070;2022-08-19T04:57:37;13.57;;;10.20;;
22026;SDS011;11177;50.966;10.070;2022-08-19T05:00:09;13.88;;;10.20;;
22026;SDS011;11177;50.966;10.070;2022-08-19T05:02:37;11.95;;;10.10;;
22026;SDS011;11177;50.966;10.070;2022-08-19T05:05:05;14.23;;;10.10;;
22026;SDS011;11177;50.966;10.070;2022-08-19T05:07:33;11.27;;;9.43;;
22026;SDS011;11177;50.966;10.070;2022-08-19T05:10:00;14.00;;;10.10;;
22026;SDS011;11177;50.966;10.070;2022-08-19T05:12:27;13.23;;;9.88;;
22026;SDS011;11177;50.966;10.070;2022-08-19T05:14:56;10.65;;;8.25;;
22026;SDS011;11177;50.966;10.070;2022-08-19T05:17:25;9.63;;;7.95;;
22026;SDS011;11177;50.966;10.070;2022-08-19T05:19:55;13.02;;;8.50;;
22026;SDS011;11177;50.966;10.070;2022-08-19T05:22:42;11.38;;;8.00;;
22026;SDS011;11177;50.966;10.070;2022-08-19T05:25:13;11.70;;;9.10;;
22026;SDS011;11177;50.966;10.070;2022-08-19T05:27:41;12.98;;;9.32;;
22026;SDS011;11177;50.966;10.070;2022-08-19T05:30:08;12.43;;;8.68;;
22026;SDS011;11177;50.966;10.070;2022-08-19T05:32:37;11.43;;;8.60;;
22026;SDS011;11177;50.966;10.070;2022-08-19T05:35:04;10.85;;;8.02;;
22026;SDS011;11177;50.966;10.070;2022-08-19T05:37:32;8.52;;;7.55;;
22026;SDS011;11177;50.966;10.070;2022-08-19T05:39:59;10.68;;;8.23;;
22026;SDS011;11177;50.966;10.070;2022-08-19T05:42:26;12.40;;;8.75;;
22026;SDS011;11177;50.966;10.070;2022-08-19T05:44:53;9.93;;;8.90;;
22026;SDS011;11177;50.966;10.070;2022-08-19T05:47:20;12.88;;;9.18;;
22026;SDS011;11177;50.966;10.070;2022-08-19T05:49:47;16.02;;;11.73;;
22026;SDS011;11177;50.966;10.070;2022-08-19T05:52:16;14.05;;;11.38;;
22026;SDS011;11177;50.966;10.070;2022-08-19T05:54:45;14.55;;;11.77;;
22026;SDS011;11177;50.966;10.070;2022-08-19T05:57:16;13.70;;;12.05;;
22026;SDS011;11177;50.966;10.070;2022-08-19T05:59:44;17.13;;;13.05;;
22026;SDS011;11177;50.966;10.070;2022-08-19T06:02:27;17.00;;;12.63;;
22026;SDS011;11177;50.966;10.070;2022-08-19T06:04:57;16.33;;;12.87;;
22026;SDS011;11177;50.966;10.070;2022-08-19T06:07:24;14.23;;;12.02;;
22026;SDS011;11177;50.966;10.070;2022-08-19T06:09:52;15.25;;;11.85;;
22026;SDS011;11177;50.966;10.070;2022-08-19T06:12:29;17.77;;;12.40;;
22026;SDS011;11177;50.966;10.070;2022-08-19T06:15:11;16.48;;;12.80;;
22026;SDS011;11177;50.966;10.070;2022-08-19T06:17:40;13.85;;;11.40;;
22026;SDS011;11177;50.966;10.070;2022-08-19T06:20:09;13.65;;;12.02;;
22026;SDS011;11177;50.966;10.070;2022-08-19T06:22:41;16.92;;;12.52;;
22026;SDS011;11177;50.966;10.070;2022-08-19T06:25:10;15.02;;;11.77;;
22026;SDS011;11177;50.966;10.070;2022-08-19T06:27:38;13.95;;;11.18;;
22026;SDS011;11177;50.966;10.070;2022-08-19T06:30:25;17.20;;;10.60;;
22026;SDS011;11177;50.966;10.070;2022-08-19T06:32:53;13.00;;;10.02;;
22026;SDS011;11177;50.966;10.070;2022-08-19T06:35:20;9.93;;;8.70;;
22026;SDS011;11177;50.966;10.070;2022-08-19T06:37:47;16.10;;;8.15;;
22026;SDS011;11177;50.966;10.070;2022-08-19T06:40:14;10.60;;;8.07;;
22026;SDS011;11177;50.966;10.070;2022-08-19T06:42:41;10.35;;;7.57;;
22026;SDS011;11177;50.966;10.070;2022-08-19T06:45:20;8.75;;;7.13;;
22026;SDS011;11177;50.966;10.070;2022-08-19T06:47:51;8.70;;;7.20;;
22026;SDS011;11177;50.966;10.070;2022-08-19T06:50:23;10.70;;;7.80;;
22026;SDS011;11177;50.966;10.070;2022-08-19T06:52:50;10.57;;;6.97;;
22026;SDS011;11177;50.966;10.070;2022-08-19T06:55:18;13.02;;;7.35;;
22026;SDS011;11177;50.966;10.070;2022-08-19T06:57:45;8.82;;;6.90;;
22026;SDS011;11177;50.966;10.070;2022-08-19T07:00:14;9.43;;;7.35;;
22026;SDS011;11177;50.966;10.070;2022-08-19T07:02:42;9.02;;;6.75;;
22026;SDS011;11177;50.966;10.070;2022-08-19T07:05:18;9.82;;;6.88;;
22026;SDS011;11177;50.966;10.070;2022-08-19T07:07:45;8.07;;;6.45;;
22026;SDS011;11177;50.966;10.070;2022-08-19T07:10:13;10.07;;;6.43;;
22026;SDS011;11177;50.966;10.070;2022-08-19T07:12:40;7.50;;;6.20;;
22026;SDS011;11177;50.966;10.070;2022-08-19T07:15:08;11.15;;;6.35;;
22026;SDS011;11177;50.966;10.070;2022-08-19T07:17:36;8.40;;;5.45;;
22026;SDS011;11177;50.966;10.070;2022-08-19T07:20:07;6.32;;;5.38;;
22026;SDS011;11177;50.966;10.070;2022-08-19T07:22:36;8.23;;;5.55;;
22026;SDS011;11177;50.966;10.070;2022-08-19T07:25:05;6.93;;;4.93;;
22026;SDS011;11177;50.966;10.070;2022-08-19T07:27:33;7.93;;;5.28;;
22026;SDS011;11177;50.966;10.070;2022-08-19T07:30:00;5.50;;;4.97;;
22026;SDS011;11177;50.966;10.070;2022-08-19T07:32:29;6.88;;;4.65;;
22026;SDS011;11177;50.966;10.070;2022-08-19T07:34:57;5.28;;;4.68;;
22026;SDS011;11177;50.966;10.070;2022-08-19T07:37:27;4.93;;;4.30;;
22026;SDS011;11177;50.966;10.070;2022-08-19T07:39:59;5.25;;;4.22;;
22026;SDS011;11177;50.966;10.070;2022-08-19T07:42:27;5.75;;;4.22;;
22026;SDS011;11177;50.966;10.070;2022-08-19T07:44:56;4.97;;;4.47;;
22026;SDS011;11177;50.966;10.070;2022-08-19T07:47:24;4.40;;;3.50;;
22026;SDS011;11177;50.966;10.070;2022-08-19T07:50:11;3.53;;;3.20;;
22026;SDS011;11177;50.966;10.070;2022-08-19T07:52:38;3.80;;;3.13;;
22026;SDS011;11177;50.966;10.070;2022-08-19T07:55:08;4.07;;;2.80;;
22026;SDS011;11177;50.966;10.070;2022-08-19T07:57:56;4.00;;;2.42;;
22026;SDS011;11177;50.966;10.070;2022-08-19T08:00:24;2.50;;;2.30;;
22026;SDS011;11177;50.966;10.070;2022-08-19T08:02:52;2.30;;;2.10;;
22026;SDS011;11177;50.966;10.070;2022-08-19T08:05:21;3.20;;;2.13;;
22026;SDS011;11177;50.966;10.070;2022-08-19T08:08:10;3.75;;;2.50;;
22026;SDS011;11177;50.966;10.070;2022-08-19T08:10:57;3.95;;;2.53;;
22026;SDS011;11177;50.966;10.070;2022-08-19T08:13:24;7.28;;;3.00;;
22026;SDS011;11177;50.966;10.070;2022-08-19T08:15:53;4.57;;;3.13;;
22026;SDS011;11177;50.966;10.070;2022-08-19T08:18:22;6.22;;;3.78;;
22026;SDS011;11177;50.966;10.070;2022-08-19T08:20:55;4.28;;;3.65;;
22026;SDS011;11177;50.966;10.070;2022-08-19T08:23:23;3.05;;;2.70;;
22026;SDS011;11177;50.966;10.070;2022-08-19T08:25:55;3.47;;;2.60;;
22026;SDS011;11177;50.966;10.070;2022-08-19T08:28:23;2.70;;;2.50;;
22026;SDS011;11177;50.966;10.070;2022-08-19T08:30:55;2.30;;;2.10;;
22026;SDS011;11177;50.966;10.070;2022-08-19T08:33:24;2.40;;;2.20;;
22026;SDS011;11177;50.966;10.070;2022-08-19T08:35:59;2.50;;;2.30;;
22026;SDS011;11177;50.966;10.070;2022-08-19T08:38:29;2.58;;;2.38;;
22026;SDS011;11177;50.966;10.070;2022-08-19T08:41:06;6.43;;;2.57;;
22026;SDS011;11177;50.966;10.070;2022-08-19T08:43:46;5.85;;;2.60;;
22026;SDS011;11177;50.966;10.070;2022-08-19T08:46:15;2.35;;;2.15;;
22026;SDS011;11177;50.966;10.070;2022-08-19T08:50:31;2.22;;;2.00;;
22026;SDS011;11177;50.966;10.070;2022-08-19T08:54:57;3.05;;;2.40;;
22026;SDS011;11177;50.966;10.070;2022-08-19T08:57:33;2.70;;;1.98;;
22026;SDS011;11177;50.966;10.070;2022-08-19T09:00:10;3.92;;;2.35;;
22026;SDS011;11177;50.966;10.070;2022-08-19T09:02:41;3.93;;;2.77;;
22026;SDS011;11177;50.966;10.070;2022-08-19T09:05:09;3.17;;;2.33;;
22026;SDS011;11177;50.966;10.070;2022-08-19T09:07:48;3.35;;;2.30;;
22026;SDS011;11177;50.966;10.070;2022-08-19T09:14:02;3.22;;;2.20;;
22026;SDS011;11177;50.966;10.070;2022-08-19T09:16:17;2.63;;;2.22;;
22026;SDS011;11177;50.966;10.070;2022-08-19T09:18:54;2.72;;;2.30;;
22026;SDS011;11177;50.966;10.070;2022-08-19T09:21:24;2.53;;;2.33;;
22026;SDS011;11177;50.966;10.070;2022-08-19T09:24:00;4.72;;;2.40;;
22026;SDS011;11177;50.966;10.070;2022-08-19T09:26:29;3.88;;;2.38;;
22026;SDS011;11177;50.966;10.070;2022-08-19T09:29:17;3.00;;;2.35;;
22026;SDS011;11177;50.966;10.070;2022-08-19T09:31:47;3.22;;;2.30;;
22026;SDS011;11177;50.966;10.070;2022-08-19T09:34:20;3.70;;;2.63;;
22026;SDS011;11177;50.966;10.070;2022-08-19T09:36:51;3.10;;;2.80;;
22026;SDS011;11177;50.966;10.070;2022-08-19T09:39:20;4.70;;;2.65;;
22026;SDS011;11177;50.966;10.070;2022-08-19T09:41:47;2.80;;;2.50;;
22026;SDS011;11177;50.966;10.070;2022-08-19T09:44:16;4.30;;;2.90;;
22026;SDS011;11177;50.966;10.070;2022-08-19T09:46:44;3.33;;;3.03;;
22026;SDS011;11177;50.966;10.070;2022-08-19T09:49:14;3.42;;;3.13;;
22026;SDS011;11177;50.966;10.070;2022-08-19T09:51:43;2.90;;;2.58;;
22026;SDS011;11177;50.966;10.070;2022-08-19T09:54:16;3.45;;;2.80;;
22026;SDS011;11177;50.966;10.070;2022-08-19T09:59:18;4.03;;;2.60;;
22026;SDS011;11177;50.966;10.070;2022-08-19T10:01:45;2.92;;;2.38;;
22026;SDS011;11177;50.966;10.070;2022-08-19T10:04:13;4.95;;;2.50;;
22026;SDS011;11177;50.966;10.070;2022-08-19T10:09:19;4.57;;;2.78;;
22026;SDS011;11177;50.966;10.070;2022-08-19T10:11:59;3.00;;;2.70;;
22026;SDS011;11177;50.966;10.070;2022-08-19T10:14:28;3.10;;;2.60;;
22026;SDS011;11177;50.966;10.070;2022-08-19T10:17:00;3.10;;;2.80;;
22026;SDS011;11177;50.966;10.070;2022-08-19T10:19:46;4.30;;;2.95;;
22026;SDS011;11177;50.966;10.070;2022-08-19T10:22:21;4.40;;;2.53;;
22026;SDS011;11177;50.966;10.070;2022-08-19T10:24:50;2.33;;;2.13;;
22026;SDS011;11177;50.966;10.070;2022-08-19T10:27:18;2.47;;;2.28;;
22026;SDS011;11177;50.966;10.070;2022-08-19T10:29:48;3.35;;;2.38;;
22026;SDS011;11177;50.966;10.070;2022-08-19T10:32:15;5.70;;;2.47;;
22026;SDS011;11177;50.966;10.070;2022-08-19T10:34:42;3.00;;;2.28;;
22026;SDS011;11177;50.966;10.070;2022-08-19T10:37:14;7.10;;;2.20;;
22026;SDS011;11177;50.966;10.070;2022-08-19T10:39:56;2.60;;;2.40;;
22026;SDS011;11177;50.966;10.070;2022-08-19T10:42:24;3.63;;;2.05;;
22026;SDS011;11177;50.966;10.070;2022-08-19T10:44:51;3.72;;;2.28;;
22026;SDS011;11177;50.966;10.070;2022-08-19T10:47:18;2.40;;;2.20;;
22026;SDS011;11177;50.966;10.070;2022-08-19T10:49:54;2.40;;;2.20;;
22026;SDS011;11177;50.966;10.070;2022-08-19T10:52:42;3.78;;;2.35;;
22026;SDS011;11177;50.966;10.070;2022-08-19T10:55:19;4.47;;;2.10;;
22026;SDS011;11177;50.966;10.070;2022-08-19T10:58:10;3.58;;;2.05;;
22026;SDS011;11177;50.966;10.070;2022-08-19T11:00:41;2.60;;;2.10;;
22026;SDS011;11177;50.966;10.070;2022-08-19T11:03:10;3.70;;;2.10;;
22026;SDS011;11177;50.966;10.070;2022-08-19T11:05:37;2.10;;;1.90;;
22026;SDS011;11177;50.966;10.070;2022-08-19T11:08:06;2.17;;;2.00;;
22026;SDS011;11177;50.966;10.070;2022-08-19T11:10:49;4.05;;;1.83;;
22026;SDS011;11177;50.966;10.070;2022-08-19T11:13:17;2.15;;;2.00;;
22026;SDS011;11177;50.966;10.070;2022-08-19T11:15:44;3.50;;;1.90;;
22026;SDS011;11177;50.966;10.070;2022-08-19T11:18:13;3.63;;;2.22;;
22026;SDS011;11177;50.966;10.070;2022-08-19T11:20:40;2.30;;;2.00;;
22026;SDS011;11177;50.966;10.070;2022-08-19T11:23:08;2.47;;;2.22;;
22026;SDS011;11177;50.966;10.070;2022-08-19T11:25:37;2.88;;;1.98;;
22026;SDS011;11177;50.966;10.070;2022-08-19T11:28:05;4.30;;;2.00;;
22026;SDS011;11177;50.966;10.070;2022-08-19T11:30:32;3.55;;;2.20;;
22026;SDS011;11177;50.966;10.070;2022-08-19T11:33:00;2.65;;;2.10;;
22026;SDS011;11177;50.966;10.070;2022-08-19T11:35:27;2.15;;;2.03;;
22026;SDS011;11177;50.966;10.070;2022-08-19T11:37:54;2.20;;;2.00;;
22026;SDS011;11177;50.966;10.070;2022-08-19T11:40:24;2.30;;;1.77;;
22026;SDS011;11177;50.966;10.070;2022-08-19T11:42:51;2.90;;;1.73;;
22026;SDS011;11177;50.966;10.070;2022-08-19T11:45:26;4.78;;;1.92;;
22026;SDS011;11177;50.966;10.070;2022-08-19T11:47:54;3.40;;;1.75;;
22026;SDS011;11177;50.966;10.070;2022-08-19T11:50:22;3.05;;;1.85;;
22026;SDS011;11177;50.966;10.070;2022-08-19T11:52:49;4.75;;;2.00;;
22026;SDS011;11177;50.966;10.070;2022-08-19T11:55:17;2.08;;;1.88;;
22026;SDS011;11177;50.966;10.070;2022-08-19T11:57:45;3.80;;;1.73;;
22026;SDS011;11177;50.966;10.070;2022-08-19T12:00:13;2.15;;;1.88;;
22026;SDS011;11177;50.966;10.070;2022-08-19T12:02:41;2.20;;;1.80;;
22026;SDS011;11177;50.966;10.070;2022-08-19T12:05:08;3.47;;;1.77;;
22026;SDS011;11177;50.966;10.070;2022-08-19T12:07:38;3.25;;;1.80;;
22026;SDS011;11177;50.966;10.070;2022-08-19T12:10:07;3.80;;;1.77;;
22026;SDS011;11177;50.966;10.070;2022-08-19T12:12:36;2.05;;;1.65;;
22026;SDS011;11177;50.966;10.070;2022-08-19T12:15:07;3.60;;;1.73;;
22026;SDS011;11177;50.966;10.070;2022-08-19T12:17:35;2.00;;;1.80;;
22026;SDS011;11177;50.966;10.070;2022-08-19T12:20:02;1.95;;;1.60;;
22026;SDS011;11177;50.966;10.070;2022-08-19T12:22:30;2.78;;;1.90;;
22026;SDS011;11177;50.966;10.070;2022-08-19T12:24:57;2.25;;;1.80;;
22026;SDS011;11177;50.966;10.070;2022-08-19T12:27:24;5.05;;;2.00;;
22026;SDS011;11177;50.966;10.070;2022-08-19T12:30:06;2.17;;;1.73;;
22026;SDS011;11177;50.966;10.070;2022-08-19T12:32:35;5.65;;;1.75;;
22026;SDS011;11177;50.966;10.070;2022-08-19T12:35:02;4.60;;;1.80;;
22026;SDS011;11177;50.966;10.070;2022-08-19T12:37:30;3.55;;;1.60;;
22026;SDS011;11177;50.966;10.070;2022-08-19T12:39:58;4.65;;;2.00;;
22026;SDS011;11177;50.966;10.070;2022-08-19T12:42:25;2.13;;;1.80;;
22026;SDS011;11177;50.966;10.070;2022-08-19T12:44:52;2.55;;;1.77;;
22026;SDS011;11177;50.966;10.070;2022-08-19T12:47:20;2.65;;;1.95;;
22026;SDS011;11177;50.966;10.070;2022-08-19T12:49:48;4.03;;;1.92;;
22026;SDS011;11177;50.966;10.070;2022-08-19T12:52:24;9.37;;;1.90;;
22026;SDS011;11177;50.966;10.070;2022-08-19T12:54:54;10.57;;;1.67;;
22026;SDS011;11177;50.966;10.070;2022-08-19T12:57:23;6.70;;;1.77;;
22026;SDS011;11177;50.966;10.070;2022-08-19T13:00:05;5.57;;;1.70;;
22026;SDS011;11177;50.966;10.070;2022-08-19T13:02:38;3.38;;;1.63;;
22026;SDS011;11177;50.966;10.070;2022-08-19T13:05:09;6.03;;;1.65;;
22026;SDS011;11177;50.966;10.070;2022-08-19T13:07:38;1.83;;;1.70;;
22026;SDS011;11177;50.966;10.070;2022-08-19T13:10:06;1.83;;;1.73;;
22026;SDS011;11177;50.966;10.070;2022-08-19T13:12:34;6.15;;;1.80;;
22026;SDS011;11177;50.966;10.070;2022-08-19T13:15:01;1.85;;;1.67;;
22026;SDS011;11177;50.966;10.070;2022-08-19T13:17:36;3.60;;;1.90;;
22026;SDS011;11177;50.966;10.070;2022-08-19T13:20:04;2.85;;;1.80;;
22026;SDS011;11177;50.966;10.070;2022-08-19T13:22:34;2.33;;;1.65;;
22026;SDS011;11177;50.966;10.070;2022-08-19T13:25:04;3.38;;;1.73;;
22026;SDS011;11177;50.966;10.070;2022-08-19T13:27:32;3.00;;;2.00;;
22026;SDS011;11177;50.966;10.070;2022-08-19T13:29:59;1.98;;;1.52;;
22026;SDS011;11177;50.966;10.070;2022-08-19T13:32:45;2.47;;;1.90;;
22026;SDS011;11177;50.966;10.070;2022-08-19T13:35:30;2.10;;;1.92;;
22026;SDS011;11177;50.966;10.070;2022-08-19T13:37:58;2.00;;;1.70;;
22026;SDS011;11177;50.966;10.070;2022-08-19T13:40:25;2.20;;;1.92;;
22026;SDS011;11177;50.966;10.070;2022-08-19T13:42:53;2.25;;;2.05;;
22026;SDS011;11177;50.966;10.070;2022-08-19T13:45:22;3.85;;;1.85;;
22026;SDS011;11177;50.966;10.070;2022-08-19T13:47:52;2.75;;;1.92;;
22026;SDS011;11177;50.966;10.070;2022-08-19T13:50:25;2.88;;;1.77;;
22026;SDS011;11177;50.966;10.070;2022-08-19T13:52:55;2.63;;;2.03;;
22026;SDS011;11177;50.966;10.070;2022-08-19T13:55:22;1.83;;;1.73;;
22026;SDS011;11177;50.966;10.070;2022-08-19T13:57:59;2.17;;;2.00;;
22026;SDS011;11177;50.966;10.070;2022-08-19T14:00:29;2.70;;;2.30;;
22026;SDS011;11177;50.966;10.070;2022-08-19T14:02:58;2.47;;;2.25;;
22026;SDS011;11177;50.966;10.070;2022-08-19T14:05:26;1.95;;;1.85;;
22026;SDS011;11177;50.966;10.070;2022-08-19T14:07:55;2.50;;;2.30;;
22026;SDS011;11177;50.966;10.070;2022-08-19T14:10:23;2.42;;;2.20;;
22026;SDS011;11177;50.966;10.070;2022-08-19T14:12:54;2.88;;;2.25;;
22026;SDS011;11177;50.966;10.070;2022-08-19T14:15:22;4.95;;;2.42;;
22026;SDS011;11177;50.966;10.070;2022-08-19T14:17:50;2.70;;;2.10;;
22026;SDS011;11177;50.966;10.070;2022-08-19T14:20:17;2.47;;;2.28;;
22026;SDS011;11177;50.966;10.070;2022-08-19T14:22:45;3.70;;;2.00;;
22026;SDS011;11177;50.966;10.070;2022-08-19T14:25:14;2.20;;;2.00;;
22026;SDS011;11177;50.966;10.070;2022-08-19T14:27:44;2.58;;;2.35;;
22026;SDS011;11177;50.966;10.070;2022-08-19T14:30:13;4.28;;;2.10;;
22026;SDS011;11177;50.966;10.070;2022-08-19T14:32:43;2.55;;;1.90;;
22026;SDS011;11177;50.966;10.070;2022-08-19T14:35:10;2.65;;;2.00;;
22026;SDS011;11177;50.966;10.070;2022-08-19T14:37:39;3.67;;;2.00;;
22026;SDS011;11177;50.966;10.070;2022-08-19T14:40:12;2.75;;;2.00;;
22026;SDS011;11177;50.966;10.070;2022-08-19T14:42:41;5.03;;;2.25;;
22026;SDS011;11177;50.966;10.070;2022-08-19T14:45:09;2.00;;;1.90;;
22026;SDS011;11177;50.966;10.070;2022-08-19T14:47:37;1.98;;;1.88;;
22026;SDS011;11177;50.966;10.070;2022-08-19T14:50:09;4.25;;;2.15;;
22026;SDS011;11177;50.966;10.070;2022-08-19T14:52:44;5.88;;;2.47;;
22026;SDS011;11177;50.966;10.070;2022-08-19T14:55:13;2.97;;;2.63;;